Time;durP1;ratioP1;P1;durP2;ratioP2;P2;SDS_P1;SDS_P2;PMS_P1;PMS_P2;Temp;Humidity;BMP_temperature;BMP_pressure;BME280_temperature;BME280_humidity;BME280_pressure;Samples;Min_cycle;Max_cycle;Signal;HPM_P1;HPM_P2
2021/01/10 00:05:05;;;;;;;66.37;48.77;;;;;;;;;;14892033;29;20600;-76
2021/01/10 00:12:32;;;;;;;70.20;51.13;;;;;;;;;;14893094;29;20235;-76
2021/01/10 00:20:00;;;;;;;80.47;57.13;;;;;;;;;;14893658;29;20237;-76
2021/01/10 00:27:28;;;;;;;77.23;56.77;;;3.00;73.70;;;;;;14892272;29;20257;-77
2021/01/10 00:34:54;;;;;;;81.53;57.07;;;;;;;;;;14884322;29;20231;-77
2021/01/10 00:42:22;;;;;;;79.30;56.50;;;;;;;;;;14903212;29;20234;-78
2021/01/10 00:49:50;;;;;;;80.77;55.70;;;;;;;;;;14903204;29;20207;-77
2021/01/10 00:57:18;;;;;;;83.20;58.57;;;;;;;;;;14899334;29;20235;-77
2021/01/10 01:04:47;;;;;;;75.07;54.50;;;;;;;;;;14900346;29;20199;-78
2021/01/10 01:12:16;;;;;;;74.37;53.03;;;4.90;74.90;;;;;;14897947;29;20262;-75
2021/01/10 01:19:43;;;;;;;68.37;51.23;;;;;;;;;;14900088;29;20255;-76
2021/01/10 01:27:09;;;;;;;68.67;49.43;;;;;;;;;;14898122;29;20203;-76
2021/01/10 01:34:38;;;;;;;60.33;45.47;;;;;;;;;;14900140;29;20234;-76
2021/01/10 01:42:05;;;;;;;61.17;45.07;;;;;;;;;;14900630;29;20234;-77
2021/01/10 01:49:34;;;;;;;62.87;45.53;;;4.30;79.70;;;;;;14897569;29;20711;-77
2021/01/10 01:57:02;;;;;;;62.13;45.83;;;;;;;;;;14882229;29;20658;-76
2021/01/10 02:04:33;;;;;;;59.80;42.63;;;4.50;75.40;;;;;;14899170;29;20211;-76
2021/01/10 02:12:05;;;;;;;53.67;41.33;;;3.40;74.90;;;;;;14898798;29;20237;-77
2021/01/10 02:19:38;;;;;;;59.37;43.20;;;3.80;75.40;;;;;;14880582;29;20259;-76
2021/01/10 02:27:07;;;;;;;54.73;41.07;;;;;;;;;;14897845;29;20620;-76
2021/01/10 02:34:35;;;;;;;58.87;42.13;;;;;;;;;;14880861;29;20718;-76
2021/01/10 02:42:09;;;;;;;55.37;40.80;;;;;;;;;;14896767;29;20231;-77
2021/01/10 02:49:36;;;;;;;53.10;39.13;;;3.90;75.50;;;;;;14894945;29;20192;-76
2021/01/10 02:57:06;;;;;;;52.17;41.10;;;;;;;;;;14896115;29;20246;-76
2021/01/10 03:04:32;;;;;;;55.43;40.47;;;;;;;;;;14895386;29;20188;-77
2021/01/10 03:12:16;;;;;;;54.73;40.03;;;4.40;75.90;;;;;;14894451;29;20233;-76
2021/01/10 03:19:43;;;;;;;56.30;41.93;;;;;;;;;;14877730;29;20196;-78
2021/01/10 03:27:09;;;;;;;53.47;39.93;;;;;;;;;;14893408;29;20655;-76
2021/01/10 03:34:37;;;;;;;51.00;38.40;;;;;;;;;;14893976;29;20239;-77
2021/01/10 03:42:04;;;;;;;50.37;37.73;;;;;;;;;;14893747;29;20237;-77
2021/01/10 03:49:30;;;;;;;52.90;38.07;;;;;;;;;;14892339;29;20581;-76
2021/01/10 03:56:58;;;;;;;51.70;38.90;;;;;;;;;;14892431;29;20293;-77
2021/01/10 04:04:27;;;;;;;57.33;40.50;;;;;;;;;;14893563;29;20561;-77
2021/01/10 04:11:54;;;;;;;53.43;39.87;;;;;;;;;;14885557;29;20254;-76
2021/01/10 04:19:22;;;;;;;54.40;39.07;;;;;;;;;;14903683;29;20234;-76
2021/01/10 04:26:49;;;;;;;54.40;38.43;;;;;;;;;;14888351;29;20203;-76
2021/01/10 04:34:17;;;;;;;52.17;38.37;;;;;;;;;;14901726;29;20219;-76
2021/01/10 04:41:46;;;;;;;52.90;38.40;;;;;;;;;;14903189;29;20231;-75
2021/01/10 04:49:16;;;;;;;48.87;36.07;;;;;;;;;;14903129;29;20647;-76
2021/01/10 04:56:44;;;;;;;49.53;36.63;;;2.60;82.50;;;;;;14902561;29;20239;-77
2021/01/10 05:04:11;;;;;;;54.50;38.73;;;;;;;;;;14900641;29;20243;-76
2021/01/10 05:11:39;;;;;;;53.93;37.93;;;;;;;;;;14901356;29;20234;-76
2021/01/10 05:19:06;;;;;;;50.27;36.20;;;;;;;;;;14884480;29;20718;-77
2021/01/10 05:26:35;;;;;;;49.57;36.40;;;2.20;82.30;;;;;;14900876;29;20263;-77
2021/01/10 05:34:07;;;;;;;54.37;39.03;;;;;;;;;;14897307;29;20577;-75
2021/01/10 05:41:36;;;;;;;53.93;36.57;;;1.80;77.00;;;;;;14900542;29;20250;-76
2021/01/10 05:49:03;;;;;;;53.33;37.80;;;;;;;;;;14883091;29;20846;-76
2021/01/10 05:56:29;;;;;;;46.23;33.40;;;3.10;82.90;;;;;;14899307;29;20235;-76
2021/01/10 06:03:58;;;;;;;47.00;34.40;;;;;;;;;;14882098;29;20211;-77
2021/01/10 06:11:25;;;;;;;47.27;33.50;;;;;;;;;;14898540;29;20590;-77
2021/01/10 06:18:53;;;;;;;39.57;29.30;;;;;;;;;;14881582;29;20215;-76
2021/01/10 06:26:21;;;;;;;41.03;30.57;;;;;;;;;;14896336;29;20207;-75
2021/01/10 06:33:48;;;;;;;37.67;29.13;;;;;;;;;;14898777;29;20256;-76
2021/01/10 06:41:21;;;;;;;39.30;28.47;;;;;;;;;;14883771;29;20267;-76
2021/01/10 06:48:52;;;;;;;38.03;27.90;;;3.10;75.80;;;;;;14900236;29;20649;-78
2021/01/10 06:56:19;;;;;;;38.27;27.07;;;2.20;81.00;;;;;;14897894;29;20471;-76
2021/01/10 07:03:58;;;;;;;38.87;26.73;;;;;;;;;;14881185;29;20208;-77
2021/01/10 07:11:49;;;;;;;42.20;26.83;;;1.60;75.00;;;;;;14895902;29;20530;-77
2021/01/10 07:19:18;;;;;;;38.00;27.17;;;;;;;;;;14865969;29;20243;-77
2021/01/10 07:26:48;;;;;;;40.17;29.27;;;4.20;76.80;;;;;;14895668;29;20668;-74
2021/01/10 07:34:16;;;;;;;41.70;28.77;;;2.20;81.20;;;;;;14895590;29;20264;-75
2021/01/10 07:41:43;;;;;;;44.27;29.70;;;2.50;81.40;;;;;;14895571;29;20603;-75
2021/01/10 07:49:10;;;;;;;44.83;29.93;;;3.40;76.10;;;;;;14895100;29;20203;-76
2021/01/10 07:56:37;;;;;;;47.20;30.77;;;;;;;;;;14893809;29;20247;-77
2021/01/10 08:04:13;;;;;;;51.10;33.37;;;;;;;;;;14896098;29;20214;-75
2021/01/10 08:11:40;;;;;;;49.50;32.33;;;;;;;;;;14879263;29;20575;-75
2021/01/10 08:19:08;;;;;;;53.00;33.87;;;;;;;;;;14877961;29;20247;-75
2021/01/10 08:26:41;;;;;;;53.23;34.87;;;4.90;83.30;;;;;;14894473;29;20259;-76
2021/01/10 08:34:09;;;;;;;54.23;34.77;;;3.90;77.10;;;;;;14895260;29;20559;-76
2021/01/10 08:41:37;;;;;;;61.90;38.00;;;;;;;;;;14894705;29;20363;-76
2021/01/10 08:49:06;;;;;;;57.07;35.57;;;;;;;;;;14891778;29;20567;-76
2021/01/10 08:56:33;;;;;;;57.40;35.07;;;;;;;;;;14902064;29;20247;-77
2021/01/10 09:04:00;;;;;;;56.90;32.87;;;;;;;;;;14904639;29;20654;-76
2021/01/10 09:11:31;;;;;;;52.10;32.00;;;4.70;82.70;;;;;;14900271;29;20499;-76
2021/01/10 09:18:58;;;;;;;49.67;30.73;;;3.50;76.40;;;;;;14902189;29;20219;-76
2021/01/10 09:26:30;;;;;;;46.20;26.90;;;2.50;75.50;;;;;;14903521;29;20210;-75
2021/01/10 09:34:00;;;;;;;46.67;28.70;;;;;;;;;;14885473;29;20214;-75
2021/01/10 09:41:27;;;;;;;47.27;28.23;;;;;;;;;;14900980;29;20234;-76
2021/01/10 09:48:56;;;;;;;51.30;29.10;;;;;;;;;;14902262;29;20211;-77
2021/01/10 09:56:47;;;;;;;52.80;29.60;;;4.10;76.10;;;;;;14900805;29;20330;-76
2021/01/10 10:04:26;;;;;;;50.27;30.60;;;3.70;76.50;;;;;;14900557;29;20188;-76
2021/01/10 10:12:07;;;;;;;47.87;29.30;;;3.70;77.10;;;;;;14899689;29;20675;-76
2021/01/10 10:19:37;;;;;;;47.73;29.93;;;1.60;75.60;;;;;;14898860;29;20211;-76
2021/01/10 10:27:04;;;;;;;49.83;30.17;;;;;;;;;;14882547;29;20192;-77
2021/01/10 10:34:31;;;;;;;46.33;28.47;;;;;;;;;;14883482;29;20239;-77
2021/01/10 10:41:59;;;;;;;56.20;32.27;;;1.70;80.40;;;;;;14897379;29;20228;-76
2021/01/10 10:49:30;;;;;;;55.63;32.83;;;2.80;74.90;;;;;;14896355;29;20556;-75
2021/01/10 10:56:57;;;;;;;54.10;33.53;;;;;;;;;;14881108;29;20251;-76
2021/01/10 11:04:27;;;;;;;53.23;32.00;;;4.10;82.50;;;;;;14897351;29;20663;-77
2021/01/10 11:11:54;;;;;;;53.80;34.23;;;;;;;;;;14895334;29;20282;-74
2021/01/10 11:19:22;;;;;;;58.30;35.40;;;;;;;;;;14879468;29;20232;-75
2021/01/10 11:26:49;;;;;;;60.40;37.70;;;;;;;;;;14896012;29;20207;-74
2021/01/10 11:34:17;;;;;;;48.70;32.70;;;4.20;78.00;;;;;;14878376;29;20238;-76
2021/01/10 11:41:45;;;;;;;57.00;35.50;;;;;;;;;;14893681;29;20250;-74
2021/01/10 11:49:13;;;;;;;56.07;35.77;;;;;;;;;;14864695;29;20203;-75
2021/01/10 11:56:40;;;;;;;58.73;34.80;;;3.10;74.80;;;;;;14878477;29;20231;-75
2021/01/10 12:04:07;;;;;;;54.17;35.10;;;4.10;74.30;;;;;;14862774;29;20226;-74
2021/01/10 12:11:36;;;;;;;54.60;32.57;;;3.60;77.20;;;;;;14894760;29;20303;-73
2021/01/10 12:19:04;;;;;;;56.40;35.03;;;;;;;;;;14895215;29;20227;-76
2021/01/10 12:26:32;;;;;;;63.83;37.23;;;;;;;;;;14894955;29;20200;-82
2021/01/10 12:34:01;;;;;;;65.43;37.80;;;;;;;;;;14887914;29;20211;-80
2021/01/10 12:41:29;;;;;;;64.10;36.93;;;;;;;;;;14904746;29;20689;-81
2021/01/10 12:48:57;;;;;;;61.40;35.43;;;;;;;;;;14908045;29;20222;-75
2021/01/10 12:56:24;;;;;;;53.93;32.47;;;4.40;77.80;;;;;;14902663;29;20302;-75
2021/01/10 13:03:54;;;;;;;44.67;28.90;;;;;;;;;;14902595;29;20200;-75
2021/01/10 13:11:22;;;;;;;52.20;30.87;;;2.90;72.90;;;;;;14904674;29;20234;-77
2021/01/10 13:18:50;;;;;;;53.10;32.90;;;;;;;;;;14904021;29;20241;-78
2021/01/10 13:26:17;;;;;;;52.40;32.80;;;2.70;78.60;;;;;;14899888;29;20359;-76
2021/01/10 13:33:44;;;;;;;49.00;31.80;;;;;;;;;;14870447;29;20262;-77
2021/01/10 13:41:15;;;;;;;51.13;31.40;;;3.40;74.60;;;;;;14899923;29;20238;-76
2021/01/10 13:48:44;;;;;;;53.00;33.57;;;5.00;75.40;;;;;;14901451;29;20219;-76
2021/01/10 13:56:18;;;;;;;50.20;32.37;;;3.50;79.60;;;;;;14883621;29;20235;-75
2021/01/10 14:03:50;;;;;;;50.37;32.13;;;;;;;;;;14901058;29;20577;-76
2021/01/10 14:11:19;;;;;;;49.30;32.70;;;;;;;;;;14884047;29;20223;-76
2021/01/10 14:18:47;;;;;;;51.53;33.77;;;2.30;73.60;;;;;;14899762;29;20230;-75
2021/01/10 14:26:14;;;;;;;53.90;34.00;;;;;;;;;;14881707;29;20207;-75
2021/01/10 14:33:44;;;;;;;52.23;33.80;;;;;;;;;;14883303;29;20622;-78
2021/01/10 14:41:23;;;;;;;56.67;36.27;;;3.00;73.90;;;;;;14898367;29;20580;-76
2021/01/10 14:48:53;;;;;;;55.43;35.03;;;2.40;73.70;;;;;;14895566;29;20216;-77
2021/01/10 14:56:21;;;;;;;49.77;33.33;;;;;;;;;;14897122;29;20245;-75
2021/01/10 15:03:49;;;;;;;47.70;33.17;;;;;;;;;;14897627;29;20219;-77
2021/01/10 15:11:20;;;;;;;42.17;28.03;;;3.80;74.50;;;;;;14897375;29;20239;-77
2021/01/10 15:18:48;;;;;;;39.27;26.97;;;;;;;;;;14878488;29;20235;-75
2021/01/10 15:26:16;;;;;;;38.77;26.77;;;;;;;;;;14896477;29;20211;-77
2021/01/10 15:33:45;;;;;;;41.40;27.63;;;;;;;;;;14896555;29;20235;-78
2021/01/10 15:41:11;;;;;;;40.43;27.97;;;;;;;;;;14896528;29;20223;-75
2021/01/10 15:48:40;;;;;;;40.17;26.93;;;;;;;;;;14878575;29;20207;-78
2021/01/10 15:56:08;;;;;;;37.27;26.03;;;;;;;;;;14893925;29;20228;-76
2021/01/10 16:03:38;;;;;;;39.67;26.77;;;;;;;;;;14882766;29;20203;-76
2021/01/10 16:11:08;;;;;;;40.30;26.83;;;;;;;;;;14890805;29;20246;-75
2021/01/10 16:18:34;;;;;;;40.27;27.10;;;;;;;;;;14904590;29;20671;-75
2021/01/10 16:26:01;;;;;;;42.10;27.83;;;;;;;;;;14905430;29;20197;-74
2021/01/10 16:33:29;;;;;;;43.20;27.03;;;4.40;73.20;;;;;;14905545;29;20291;-74
2021/01/10 16:40:56;;;;;;;43.47;27.33;;;3.30;75.40;;;;;;14904840;29;20622;-75
2021/01/10 16:48:23;;;;;;;45.13;28.43;;;2.50;75.90;;;;;;14905339;29;20222;-77
2021/01/10 16:55:52;;;;;;;38.87;27.40;;;;;;;;;;14872401;29;20271;-76
2021/01/10 17:03:19;;;;;;;46.30;29.93;;;;;;;;;;14901507;29;20346;-76
2021/01/10 17:10:46;;;;;;;47.83;31.10;;;;;;;;;;14902704;29;20206;-75
2021/01/10 17:18:15;;;;;;;42.00;28.73;;;;;;;;;;14903890;29;20219;-76
2021/01/10 17:25:44;;;;;;;46.97;30.47;;;;;;;;;;14902951;29;20616;-75
2021/01/10 17:33:15;;;;;;;47.60;30.40;;;;;;;;;;14884688;29;20216;-76
2021/01/10 17:40:42;;;;;;;47.03;30.70;;;3.90;79.70;;;;;;14901713;29;20286;-76
2021/01/10 17:48:09;;;;;;;47.43;31.27;;;5.30;78.90;;;;;;14884948;29;20222;-75
2021/01/10 17:55:40;;;;;;;49.60;31.20;;;2.40;73.60;;;;;;14899372;29;20575;-76
2021/01/10 18:03:08;;;;;;;46.30;29.70;;;5.00;79.90;;;;;;14899442;29;20255;-76
2021/01/10 18:10:36;;;;;;;41.93;29.87;;;2.90;78.50;;;;;;14899417;29;20192;-74
2021/01/10 18:18:04;;;;;;;45.57;29.93;;;;;;;;;;14900800;29;20235;-87
2021/01/10 18:25:33;;;;;;;47.63;29.43;;;;;;;;;;14899849;29;20549;-73
2021/01/10 18:33:01;;;;;;;42.83;28.33;;;3.20;72.70;;;;;;14883097;29;20207;-74
2021/01/10 18:40:31;;;;;;;42.00;28.30;;;;;;;;;;14882777;29;20211;-80
2021/01/10 18:47:59;;;;;;;38.33;26.97;;;;;;;;;;14899669;29;20732;-80
2021/01/10 18:55:27;;;;;;;39.57;27.20;;;;;;;;;;14865882;29;20235;-78
2021/01/10 19:02:55;;;;;;;42.53;26.90;;;;;;;;;;14897838;29;20206;-77
2021/01/10 19:10:23;;;;;;;42.23;26.93;;;;;;;;;;14897682;29;20195;-79
2021/01/10 19:17:51;;;;;;;40.40;26.53;;;3.60;73.50;;;;;;14895614;29;20257;-77
2021/01/10 19:25:17;;;;;;;44.43;28.60;;;4.80;78.30;;;;;;14897343;29;20734;-73
2021/01/10 19:32:45;;;;;;;40.30;27.07;;;3.70;72.10;;;;;;14899183;29;20695;-73
2021/01/10 19:40:13;;;;;;;42.93;27.83;;;4.30;75.50;;;;;;14897125;29;20251;-76
2021/01/10 19:47:40;;;;;;;38.70;25.60;;;;;;;;;;14894649;29;20271;-79
2021/01/10 19:55:09;;;;;;;48.23;27.93;;;3.00;76.50;;;;;;14879687;29;20239;-73
2021/01/10 20:02:39;;;;;;;36.03;25.87;;;;;;;;;;14895890;29;20195;-74
2021/01/10 20:10:11;;;;;;;37.90;25.90;;;;;;;;;;14894529;29;20203;-80
2021/01/10 20:17:42;;;;;;;41.30;27.50;;;;;;;;;;14862845;29;20238;-80
2021/01/10 20:25:11;;;;;;;37.63;26.07;;;;;;;;;;14878743;29;20563;-80
2021/01/10 20:32:41;;;;;;;40.27;26.70;;;;;;;;;;14879057;29;20577;-81
2021/01/10 20:40:12;;;;;;;36.00;24.80;;;;;;;;;;14894570;29;20219;-80
2021/01/10 20:47:40;;;;;;;36.83;25.50;;;;;;;;;;14892510;29;20215;-79
2021/01/10 20:55:08;;;;;;;39.00;25.90;;;;;;;;;;14889246;29;20247;-79
2021/01/10 21:02:38;;;;;;;42.07;26.93;;;3.30;76.90;;;;;;14888161;29;20259;-80
2021/01/10 21:10:11;;;;;;;40.60;26.73;;;4.40;71.70;;;;;;14902451;29;20191;-80
2021/01/10 21:17:45;;;;;;;39.50;26.97;;;3.30;70.80;;;;;;14901614;29;20237;-79
2021/01/10 21:25:13;;;;;;;40.20;26.77;;;;;;;;;;14886784;29;20191;-78
2021/01/10 21:32:40;;;;;;;43.57;27.77;;;;;;;;;;14904320;29;20562;-75
2021/01/10 21:40:11;;;;;;;35.03;25.47;;;5.20;78.40;;;;;;14900866;29;20230;-76
2021/01/10 21:47:39;;;;;;;38.00;26.63;;;;;;;;;;14902930;29;20231;-77
2021/01/10 21:55:07;;;;;;;42.60;27.13;;;;;;;;;;14885484;29;20232;-76
2021/01/10 22:02:36;;;;;;;42.60;27.73;;;;;;;;;;14899184;29;20610;-76
2021/01/10 22:10:04;;;;;;;43.37;29.10;;;;;;;;;;14898162;29;20550;-76
2021/01/10 22:17:31;;;;;;;40.43;27.70;;;;;;;;;;14899258;29;20242;-77
2021/01/10 22:24:59;;;;;;;41.30;28.30;;;;;;;;;;14901105;29;20274;-75
2021/01/10 22:32:25;;;;;;;43.97;30.13;;;;;;;;;;14898073;29;20199;-75
2021/01/10 22:39:53;;;;;;;45.87;29.23;;;;;;;;;;14898623;29;20682;-76
2021/01/10 22:47:20;;;;;;;40.07;28.63;;;4.50;72.90;;;;;;14899040;29;20248;-75
2021/01/10 22:54:48;;;;;;;36.57;25.43;;;;;;;;;;14881813;29;20262;-75
2021/01/10 23:02:15;;;;;;;36.07;25.37;;;;;;;;;;14895208;29;20203;-75
2021/01/10 23:09:43;;;;;;;37.27;25.53;;;;;;;;;;14882717;29;20216;-76
2021/01/10 23:17:10;;;;;;;33.77;24.20;;;;;;;;;;14895344;29;20659;-75
2021/01/10 23:24:37;;;;;;;33.40;24.00;;;;;;;;;;14879882;29;20655;-76
2021/01/10 23:32:08;;;;;;;35.77;25.23;;;5.50;78.00;;;;;;14879271;29;20226;-76
2021/01/10 23:39:36;;;;;;;34.13;24.07;;;;;;;;;;14895605;29;20207;-75
2021/01/10 23:47:04;;;;;;;34.77;23.53;;;;;;;;;;14895079;29;20234;-74
2021/01/10 23:54:31;;;;;;;31.90;22.53;;;4.30;76.70;;;;;;14893192;29;20230;-75
